sensor_id;sensor_type;location;lat;lon;timestamp;P1;durP1;ratioP1;P2;durP2;ratioP2
17606;SDS011;69222;52.242;20.980;2024-03-23T00:55:44;25.77;;;16.80;;
17606;SDS011;69222;52.242;20.980;2024-03-23T00:58:11;23.43;;;15.67;;
17606;SDS011;69222;52.242;20.980;2024-03-23T01:00:37;25.50;;;15.23;;
17606;SDS011;69222;52.242;20.980;2024-03-23T01:03:04;26.33;;;16.83;;
17606;SDS011;69222;52.242;20.980;2024-03-23T01:05:30;22.20;;;15.70;;
17606;SDS011;69222;52.242;20.980;2024-03-23T01:07:57;23.93;;;15.07;;
17606;SDS011;69222;52.242;20.980;2024-03-23T01:10:23;23.93;;;15.20;;
17606;SDS011;69222;52.242;20.980;2024-03-23T01:12:51;24.47;;;16.17;;
17606;SDS011;69222;52.242;20.980;2024-03-23T01:15:17;25.83;;;15.63;;
17606;SDS011;69222;52.242;20.980;2024-03-23T01:17:44;24.57;;;16.40;;
17606;SDS011;69222;52.242;20.980;2024-03-23T01:20:10;26.17;;;17.27;;
17606;SDS011;69222;52.242;20.980;2024-03-23T01:22:37;24.63;;;15.53;;
17606;SDS011;69222;52.242;20.980;2024-03-23T01:25:03;28.20;;;16.67;;
17606;SDS011;69222;52.242;20.980;2024-03-23T01:27:30;24.10;;;16.10;;
17606;SDS011;69222;52.242;20.980;2024-03-23T01:29:57;24.37;;;16.77;;
17606;SDS011;69222;52.242;20.980;2024-03-23T01:32:24;24.90;;;16.40;;
17606;SDS011;69222;52.242;20.980;2024-03-23T01:34:50;26.80;;;17.63;;
17606;SDS011;69222;52.242;20.980;2024-03-23T01:37:17;27.50;;;17.03;;
17606;SDS011;69222;52.242;20.980;2024-03-23T01:39:43;26.17;;;17.40;;
17606;SDS011;69222;52.242;20.980;2024-03-23T01:42:10;26.27;;;17.03;;
17606;SDS011;69222;52.242;20.980;2024-03-23T01:44:36;29.30;;;17.33;;
17606;SDS011;69222;52.242;20.980;2024-03-23T01:47:05;26.40;;;17.67;;
17606;SDS011;69222;52.242;20.980;2024-03-23T01:49:31;27.17;;;18.40;;
17606;SDS011;69222;52.242;20.980;2024-03-23T01:51:59;28.10;;;18.00;;
17606;SDS011;69222;52.242;20.980;2024-03-23T01:54:25;27.97;;;18.53;;
17606;SDS011;69222;52.242;20.980;2024-03-23T01:56:52;27.23;;;17.40;;
17606;SDS011;69222;52.242;20.980;2024-03-23T01:59:19;28.63;;;18.53;;
17606;SDS011;69222;52.242;20.980;2024-03-23T02:01:46;29.47;;;18.70;;
17606;SDS011;69222;52.242;20.980;2024-03-23T02:04:13;29.40;;;18.70;;
17606;SDS011;69222;52.242;20.980;2024-03-23T02:06:40;28.33;;;17.03;;
17606;SDS011;69222;52.242;20.980;2024-03-23T02:09:06;28.73;;;18.00;;
17606;SDS011;69222;52.242;20.980;2024-03-23T02:11:33;26.90;;;17.53;;
17606;SDS011;69222;52.242;20.980;2024-03-23T02:13:59;24.37;;;16.63;;
17606;SDS011;69222;52.242;20.980;2024-03-23T02:16:27;26.93;;;18.00;;
17606;SDS011;69222;52.242;20.980;2024-03-23T02:18:53;29.00;;;18.97;;
17606;SDS011;69222;52.242;20.980;2024-03-23T02:21:21;25.23;;;17.50;;
17606;SDS011;69222;52.242;20.980;2024-03-23T02:23:48;26.30;;;17.30;;
17606;SDS011;69222;52.242;20.980;2024-03-23T02:26:15;27.40;;;18.33;;
17606;SDS011;69222;52.242;20.980;2024-03-23T02:28:42;27.17;;;17.30;;
17606;SDS011;69222;52.242;20.980;2024-03-23T02:31:09;30.30;;;18.03;;
17606;SDS011;69222;52.242;20.980;2024-03-23T02:33:35;31.43;;;19.63;;
17606;SDS011;69222;52.242;20.980;2024-03-23T02:36:04;26.30;;;17.10;;
17606;SDS011;69222;52.242;20.980;2024-03-23T02:38:30;27.00;;;18.53;;
17606;SDS011;69222;52.242;20.980;2024-03-23T02:41:02;32.67;;;19.90;;
17606;SDS011;69222;52.242;20.980;2024-03-23T02:43:29;33.97;;;19.67;;
17606;SDS011;69222;52.242;20.980;2024-03-23T02:45:56;30.97;;;21.17;;
17606;SDS011;69222;52.242;20.980;2024-03-23T02:48:22;32.27;;;21.07;;
17606;SDS011;69222;52.242;20.980;2024-03-23T02:50:49;27.40;;;18.53;;
17606;SDS011;69222;52.242;20.980;2024-03-23T02:53:15;33.90;;;19.83;;
17606;SDS011;69222;52.242;20.980;2024-03-23T02:55:42;30.77;;;19.70;;
17606;SDS011;69222;52.242;20.980;2024-03-23T02:58:10;30.10;;;19.20;;
17606;SDS011;69222;52.242;20.980;2024-03-23T03:00:37;30.67;;;19.60;;
17606;SDS011;69222;52.242;20.980;2024-03-23T03:03:03;32.87;;;21.30;;
17606;SDS011;69222;52.242;20.980;2024-03-23T03:05:30;31.97;;;20.53;;
17606;SDS011;69222;52.242;20.980;2024-03-23T03:07:56;30.47;;;20.77;;
17606;SDS011;69222;52.242;20.980;2024-03-23T03:10:23;35.63;;;20.00;;
17606;SDS011;69222;52.242;20.980;2024-03-23T03:12:49;31.27;;;19.87;;
17606;SDS011;69222;52.242;20.980;2024-03-23T03:15:17;31.03;;;20.23;;
17606;SDS011;69222;52.242;20.980;2024-03-23T03:17:43;32.47;;;21.50;;
17606;SDS011;69222;52.242;20.980;2024-03-23T03:20:11;32.70;;;20.27;;
17606;SDS011;69222;52.242;20.980;2024-03-23T03:22:38;31.43;;;19.40;;
17606;SDS011;69222;52.242;20.980;2024-03-23T03:25:06;31.77;;;20.87;;
17606;SDS011;69222;52.242;20.980;2024-03-23T03:27:32;28.07;;;18.03;;
17606;SDS011;69222;52.242;20.980;2024-03-23T03:29:59;32.67;;;19.03;;
17606;SDS011;69222;52.242;20.980;2024-03-23T03:32:29;30.87;;;20.30;;
17606;SDS011;69222;52.242;20.980;2024-03-23T03:34:58;30.70;;;21.07;;
17606;SDS011;69222;52.242;20.980;2024-03-23T03:37:24;29.83;;;18.63;;
17606;SDS011;69222;52.242;20.980;2024-03-23T03:39:51;28.33;;;18.80;;
17606;SDS011;69222;52.242;20.980;2024-03-23T03:42:17;30.93;;;20.23;;
17606;SDS011;69222;52.242;20.980;2024-03-23T03:44:44;30.57;;;20.40;;
17606;SDS011;69222;52.242;20.980;2024-03-23T03:47:10;31.53;;;20.97;;
17606;SDS011;69222;52.242;20.980;2024-03-23T03:49:38;36.27;;;22.37;;
17606;SDS011;69222;52.242;20.980;2024-03-23T03:52:04;36.17;;;20.47;;
17606;SDS011;69222;52.242;20.980;2024-03-23T03:54:31;34.17;;;21.80;;
17606;SDS011;69222;52.242;20.980;2024-03-23T03:56:58;34.23;;;20.87;;
17606;SDS011;69222;52.242;20.980;2024-03-23T03:59:25;30.47;;;19.30;;
17606;SDS011;69222;52.242;20.980;2024-03-23T04:01:51;31.53;;;19.10;;
17606;SDS011;69222;52.242;20.980;2024-03-23T04:04:18;28.77;;;19.20;;
17606;SDS011;69222;52.242;20.980;2024-03-23T04:06:47;33.17;;;20.50;;
17606;SDS011;69222;52.242;20.980;2024-03-23T04:09:14;31.07;;;18.77;;
17606;SDS011;69222;52.242;20.980;2024-03-23T04:11:40;30.03;;;19.53;;
17606;SDS011;69222;52.242;20.980;2024-03-23T04:14:07;31.67;;;20.70;;
17606;SDS011;69222;52.242;20.980;2024-03-23T04:16:33;31.23;;;18.97;;
17606;SDS011;69222;52.242;20.980;2024-03-23T04:19:01;27.17;;;18.73;;
17606;SDS011;69222;52.242;20.980;2024-03-23T04:21:27;33.10;;;20.23;;
17606;SDS011;69222;52.242;20.980;2024-03-23T04:23:55;28.50;;;19.10;;
17606;SDS011;69222;52.242;20.980;2024-03-23T04:26:21;29.30;;;19.80;;
17606;SDS011;69222;52.242;20.980;2024-03-23T04:28:48;31.60;;;19.70;;
17606;SDS011;69222;52.242;20.980;2024-03-23T04:31:14;25.47;;;18.30;;
17606;SDS011;69222;52.242;20.980;2024-03-23T04:33:41;30.33;;;18.53;;
17606;SDS011;69222;52.242;20.980;2024-03-23T04:36:07;30.53;;;19.93;;
17606;SDS011;69222;52.242;20.980;2024-03-23T04:38:35;28.53;;;19.73;;
17606;SDS011;69222;52.242;20.980;2024-03-23T04:41:06;29.03;;;19.37;;
17606;SDS011;69222;52.242;20.980;2024-03-23T04:43:33;30.77;;;20.20;;
17606;SDS011;69222;52.242;20.980;2024-03-23T04:46:00;27.03;;;19.10;;
17606;SDS011;69222;52.242;20.980;2024-03-23T04:48:27;26.17;;;18.17;;
17606;SDS011;69222;52.242;20.980;2024-03-23T04:50:54;26.40;;;18.73;;
17606;SDS011;69222;52.242;20.980;2024-03-23T04:53:23;29.43;;;19.30;;
17606;SDS011;69222;52.242;20.980;2024-03-23T04:55:54;27.67;;;18.27;;
17606;SDS011;69222;52.242;20.980;2024-03-23T04:58:21;27.63;;;19.13;;
17606;SDS011;69222;52.242;20.980;2024-03-23T05:00:52;28.07;;;18.93;;
17606;SDS011;69222;52.242;20.980;2024-03-23T05:03:19;34.40;;;21.57;;
17606;SDS011;69222;52.242;20.980;2024-03-23T05:05:46;33.70;;;21.47;;
17606;SDS011;69222;52.242;20.980;2024-03-23T05:08:13;31.00;;;21.00;;
17606;SDS011;69222;52.242;20.980;2024-03-23T05:10:41;32.90;;;21.40;;
17606;SDS011;69222;52.242;20.980;2024-03-23T05:13:07;33.50;;;23.07;;
17606;SDS011;69222;52.242;20.980;2024-03-23T05:15:35;33.13;;;20.63;;
17606;SDS011;69222;52.242;20.980;2024-03-23T05:18:01;30.67;;;20.83;;
17606;SDS011;69222;52.242;20.980;2024-03-23T05:20:28;35.87;;;21.53;;
17606;SDS011;69222;52.242;20.980;2024-03-23T05:22:54;33.03;;;22.13;;
17606;SDS011;69222;52.242;20.980;2024-03-23T05:25:21;31.47;;;21.20;;
17606;SDS011;69222;52.242;20.980;2024-03-23T05:27:48;34.30;;;21.27;;
17606;SDS011;69222;52.242;20.980;2024-03-23T05:30:15;33.07;;;22.37;;
17606;SDS011;69222;52.242;20.980;2024-03-23T05:32:42;32.63;;;21.77;;
17606;SDS011;69222;52.242;20.980;2024-03-23T05:35:10;30.97;;;21.63;;
17606;SDS011;69222;52.242;20.980;2024-03-23T05:37:36;35.00;;;22.80;;
17606;SDS011;69222;52.242;20.980;2024-03-23T05:40:03;37.17;;;24.00;;
17606;SDS011;69222;52.242;20.980;2024-03-23T05:42:29;35.90;;;21.43;;
17606;SDS011;69222;52.242;20.980;2024-03-23T05:44:57;34.40;;;23.03;;
17606;SDS011;69222;52.242;20.980;2024-03-23T05:47:23;39.53;;;23.70;;
17606;SDS011;69222;52.242;20.980;2024-03-23T05:49:51;35.57;;;23.23;;
17606;SDS011;69222;52.242;20.980;2024-03-23T05:52:17;36.00;;;24.17;;
17606;SDS011;69222;52.242;20.980;2024-03-23T05:54:46;36.50;;;23.10;;
17606;SDS011;69222;52.242;20.980;2024-03-23T05:57:12;37.00;;;23.50;;
17606;SDS011;69222;52.242;20.980;2024-03-23T05:59:39;38.20;;;23.00;;
17606;SDS011;69222;52.242;20.980;2024-03-23T06:02:05;38.00;;;24.40;;
17606;SDS011;69222;52.242;20.980;2024-03-23T06:04:32;37.43;;;22.07;;
17606;SDS011;69222;52.242;20.980;2024-03-23T06:07:00;35.70;;;22.00;;
17606;SDS011;69222;52.242;20.980;2024-03-23T06:09:27;35.30;;;23.33;;
17606;SDS011;69222;52.242;20.980;2024-03-23T06:11:53;31.10;;;21.57;;
17606;SDS011;69222;52.242;20.980;2024-03-23T06:14:20;34.77;;;21.37;;
17606;SDS011;69222;52.242;20.980;2024-03-23T06:16:46;33.63;;;21.07;;
17606;SDS011;69222;52.242;20.980;2024-03-23T06:19:13;33.50;;;22.00;;
17606;SDS011;69222;52.242;20.980;2024-03-23T06:21:42;35.20;;;21.87;;
17606;SDS011;69222;52.242;20.980;2024-03-23T06:24:11;36.13;;;21.57;;
17606;SDS011;69222;52.242;20.980;2024-03-23T06:26:37;32.30;;;21.30;;
17606;SDS011;69222;52.242;20.980;2024-03-23T06:29:04;34.77;;;22.27;;
17606;SDS011;69222;52.242;20.980;2024-03-23T06:31:30;30.23;;;20.80;;
17606;SDS011;69222;52.242;20.980;2024-03-23T06:33:57;32.93;;;19.93;;
17606;SDS011;69222;52.242;20.980;2024-03-23T06:36:23;30.63;;;19.93;;
17606;SDS011;69222;52.242;20.980;2024-03-23T06:38:50;29.17;;;19.73;;
17606;SDS011;69222;52.242;20.980;2024-03-23T06:41:21;30.90;;;19.60;;
17606;SDS011;69222;52.242;20.980;2024-03-23T06:43:48;28.50;;;19.50;;
17606;SDS011;69222;52.242;20.980;2024-03-23T06:46:14;29.80;;;19.53;;
17606;SDS011;69222;52.242;20.980;2024-03-23T06:48:41;26.73;;;18.40;;
17606;SDS011;69222;52.242;20.980;2024-03-23T06:51:07;31.00;;;19.13;;
17606;SDS011;69222;52.242;20.980;2024-03-23T06:53:34;30.70;;;19.80;;
17606;SDS011;69222;52.242;20.980;2024-03-23T06:56:00;26.93;;;18.40;;
17606;SDS011;69222;52.242;20.980;2024-03-23T06:58:28;28.77;;;18.77;;
17606;SDS011;69222;52.242;20.980;2024-03-23T07:00:54;28.80;;;19.27;;
17606;SDS011;69222;52.242;20.980;2024-03-23T07:03:21;30.30;;;20.00;;
17606;SDS011;69222;52.242;20.980;2024-03-23T07:05:48;28.00;;;18.87;;
17606;SDS011;69222;52.242;20.980;2024-03-23T07:08:15;27.43;;;18.07;;
17606;SDS011;69222;52.242;20.980;2024-03-23T07:10:46;29.53;;;19.00;;
17606;SDS011;69222;52.242;20.980;2024-03-23T07:13:13;29.93;;;18.53;;
17606;SDS011;69222;52.242;20.980;2024-03-23T07:15:41;29.37;;;20.33;;
17606;SDS011;69222;52.242;20.980;2024-03-23T07:18:08;31.40;;;19.53;;
17606;SDS011;69222;52.242;20.980;2024-03-23T07:20:34;33.97;;;20.37;;
17606;SDS011;69222;52.242;20.980;2024-03-23T07:23:01;31.03;;;19.43;;
17606;SDS011;69222;52.242;20.980;2024-03-23T07:25:27;33.00;;;19.60;;
17606;SDS011;69222;52.242;20.980;2024-03-23T07:27:54;30.07;;;19.77;;
17606;SDS011;69222;52.242;20.980;2024-03-23T07:30:20;31.37;;;19.27;;
17606;SDS011;69222;52.242;20.980;2024-03-23T07:32:48;28.23;;;18.83;;
17606;SDS011;69222;52.242;20.980;2024-03-23T07:35:14;26.27;;;18.43;;
17606;SDS011;69222;52.242;20.980;2024-03-23T07:37:41;28.33;;;18.77;;
17606;SDS011;69222;52.242;20.980;2024-03-23T07:40:08;27.73;;;17.00;;
17606;SDS011;69222;52.242;20.980;2024-03-23T07:42:37;27.53;;;18.17;;
17606;SDS011;69222;52.242;20.980;2024-03-23T07:45:03;26.27;;;17.33;;
17606;SDS011;69222;52.242;20.980;2024-03-23T07:47:30;29.60;;;19.73;;
17606;SDS011;69222;52.242;20.980;2024-03-23T07:49:58;28.07;;;17.40;;
17606;SDS011;69222;52.242;20.980;2024-03-23T07:52:27;29.93;;;18.67;;
17606;SDS011;69222;52.242;20.980;2024-03-23T07:54:54;30.43;;;17.20;;
17606;SDS011;69222;52.242;20.980;2024-03-23T07:57:21;26.80;;;16.70;;
17606;SDS011;69222;52.242;20.980;2024-03-23T07:59:47;23.03;;;16.17;;
17606;SDS011;69222;52.242;20.980;2024-03-23T08:02:13;29.27;;;17.63;;
17606;SDS011;69222;52.242;20.980;2024-03-23T08:04:39;31.33;;;17.07;;
17606;SDS011;69222;52.242;20.980;2024-03-23T08:07:08;29.13;;;17.27;;
17606;SDS011;69222;52.242;20.980;2024-03-23T08:09:33;24.87;;;16.40;;
17606;SDS011;69222;52.242;20.980;2024-03-23T08:12:00;27.97;;;16.40;;
17606;SDS011;69222;52.242;20.980;2024-03-23T08:14:27;25.67;;;16.10;;
17606;SDS011;69222;52.242;20.980;2024-03-23T08:16:54;25.50;;;16.90;;
17606;SDS011;69222;52.242;20.980;2024-03-23T08:19:20;22.67;;;16.23;;
17606;SDS011;69222;52.242;20.980;2024-03-23T08:21:48;25.80;;;15.47;;
17606;SDS011;69222;52.242;20.980;2024-03-23T08:24:17;24.87;;;15.63;;
17606;SDS011;69222;52.242;20.980;2024-03-23T08:26:45;22.97;;;16.87;;
17606;SDS011;69222;52.242;20.980;2024-03-23T08:29:11;27.57;;;16.10;;
17606;SDS011;69222;52.242;20.980;2024-03-23T08:31:37;23.53;;;16.07;;
17606;SDS011;69222;52.242;20.980;2024-03-23T08:34:04;25.07;;;16.10;;
17606;SDS011;69222;52.242;20.980;2024-03-23T08:36:31;25.33;;;17.30;;
17606;SDS011;69222;52.242;20.980;2024-03-23T08:38:58;25.23;;;16.77;;
17606;SDS011;69222;52.242;20.980;2024-03-23T08:41:25;21.83;;;15.37;;
17606;SDS011;69222;52.242;20.980;2024-03-23T08:43:54;22.50;;;16.20;;
17606;SDS011;69222;52.242;20.980;2024-03-23T08:46:20;27.90;;;16.73;;
17606;SDS011;69222;52.242;20.980;2024-03-23T08:48:47;25.70;;;17.20;;
17606;SDS011;69222;52.242;20.980;2024-03-23T08:51:14;21.93;;;14.50;;
17606;SDS011;69222;52.242;20.980;2024-03-23T08:53:43;22.53;;;14.93;;
17606;SDS011;69222;52.242;20.980;2024-03-23T08:56:09;19.83;;;14.33;;
17606;SDS011;69222;52.242;20.980;2024-03-23T08:58:38;17.87;;;12.87;;
17606;SDS011;69222;52.242;20.980;2024-03-23T09:01:06;17.67;;;12.13;;
17606;SDS011;69222;52.242;20.980;2024-03-23T09:03:34;18.07;;;13.07;;
17606;SDS011;69222;52.242;20.980;2024-03-23T09:06:01;18.10;;;12.33;;
17606;SDS011;69222;52.242;20.980;2024-03-23T09:08:30;16.27;;;12.53;;
17606;SDS011;69222;52.242;20.980;2024-03-23T09:10:56;17.07;;;12.33;;
17606;SDS011;69222;52.242;20.980;2024-03-23T09:13:23;16.77;;;11.80;;
17606;SDS011;69222;52.242;20.980;2024-03-23T09:15:53;16.77;;;11.77;;
17606;SDS011;69222;52.242;20.980;2024-03-23T09:18:23;16.17;;;11.07;;
17606;SDS011;69222;52.242;20.980;2024-03-23T09:20:51;15.63;;;11.40;;
17606;SDS011;69222;52.242;20.980;2024-03-23T09:23:20;16.87;;;11.80;;
17606;SDS011;69222;52.242;20.980;2024-03-23T09:25:46;16.13;;;11.50;;
17606;SDS011;69222;52.242;20.980;2024-03-23T09:28:13;14.73;;;10.30;;
17606;SDS011;69222;52.242;20.980;2024-03-23T09:30:39;15.13;;;10.63;;
17606;SDS011;69222;52.242;20.980;2024-03-23T09:33:10;14.33;;;10.27;;
17606;SDS011;69222;52.242;20.980;2024-03-23T09:35:36;15.03;;;10.20;;
17606;SDS011;69222;52.242;20.980;2024-03-23T09:38:04;15.03;;;11.27;;
17606;SDS011;69222;52.242;20.980;2024-03-23T09:40:30;13.40;;;9.80;;
17606;SDS011;69222;52.242;20.980;2024-03-23T09:42:58;15.50;;;10.77;;
17606;SDS011;69222;52.242;20.980;2024-03-23T09:45:26;16.30;;;10.00;;
17606;SDS011;69222;52.242;20.980;2024-03-23T09:47:54;15.10;;;10.30;;
17606;SDS011;69222;52.242;20.980;2024-03-23T09:50:23;15.70;;;10.30;;
17606;SDS011;69222;52.242;20.980;2024-03-23T09:52:50;16.47;;;10.90;;
17606;SDS011;69222;52.242;20.980;2024-03-23T09:55:16;13.40;;;9.73;;
17606;SDS011;69222;52.242;20.980;2024-03-23T09:57:43;14.50;;;9.77;;
17606;SDS011;69222;52.242;20.980;2024-03-23T10:00:09;14.10;;;9.37;;
17606;SDS011;69222;52.242;20.980;2024-03-23T10:02:38;13.80;;;8.93;;
17606;SDS011;69222;52.242;20.980;2024-03-23T10:05:04;12.70;;;9.67;;
17606;SDS011;69222;52.242;20.980;2024-03-23T10:07:48;13.33;;;9.47;;
17606;SDS011;69222;52.242;20.980;2024-03-23T10:10:15;12.70;;;9.60;;
17606;SDS011;69222;52.242;20.980;2024-03-23T10:12:43;14.93;;;9.93;;
17606;SDS011;69222;52.242;20.980;2024-03-23T10:15:15;13.17;;;9.50;;
17606;SDS011;69222;52.242;20.980;2024-03-23T10:17:44;12.47;;;9.10;;
17606;SDS011;69222;52.242;20.980;2024-03-23T10:20:11;13.17;;;9.50;;
17606;SDS011;69222;52.242;20.980;2024-03-23T10:22:37;14.67;;;9.80;;
17606;SDS011;69222;52.242;20.980;2024-03-23T10:25:10;11.95;;;8.25;;
17606;SDS011;69222;52.242;20.980;2024-03-23T10:27:37;12.47;;;8.43;;
17606;SDS011;69222;52.242;20.980;2024-03-23T10:30:07;11.57;;;8.93;;
17606;SDS011;69222;52.242;20.980;2024-03-23T10:32:34;12.32;;;8.60;;
17606;SDS011;69222;52.242;20.980;2024-03-23T10:35:14;11.18;;;7.93;;
17606;SDS011;69222;52.242;20.980;2024-03-23T10:37:41;12.18;;;9.07;;
17606;SDS011;69222;52.242;20.980;2024-03-23T10:40:11;11.15;;;8.43;;
17606;SDS011;69222;52.242;20.980;2024-03-23T10:42:38;11.38;;;8.48;;
17606;SDS011;69222;52.242;20.980;2024-03-23T10:45:06;11.80;;;8.52;;
17606;SDS011;69222;52.242;20.980;2024-03-23T10:47:33;11.52;;;8.57;;
17606;SDS011;69222;52.242;20.980;2024-03-23T10:50:03;12.35;;;8.82;;
17606;SDS011;69222;52.242;20.980;2024-03-23T10:52:30;10.38;;;8.45;;
17606;SDS011;69222;52.242;20.980;2024-03-23T10:54:57;11.82;;;8.73;;
17606;SDS011;69222;52.242;20.980;2024-03-23T10:57:29;12.27;;;7.82;;
17606;SDS011;69222;52.242;20.980;2024-03-23T11:00:02;10.90;;;7.32;;
17606;SDS011;69222;52.242;20.980;2024-03-23T11:02:29;11.60;;;8.27;;
17606;SDS011;69222;52.242;20.980;2024-03-23T11:04:56;9.02;;;7.30;;
17606;SDS011;69222;52.242;20.980;2024-03-23T11:07:28;12.38;;;7.60;;
17606;SDS011;69222;52.242;20.980;2024-03-23T11:09:56;14.38;;;7.82;;
17606;SDS011;69222;52.242;20.980;2024-03-23T11:12:28;9.05;;;7.25;;
17606;SDS011;69222;52.242;20.980;2024-03-23T11:14:58;12.15;;;6.97;;
17606;SDS011;69222;52.242;20.980;2024-03-23T11:17:26;10.43;;;6.65;;
17606;SDS011;69222;52.242;20.980;2024-03-23T11:19:55;9.52;;;6.88;;
17606;SDS011;69222;52.242;20.980;2024-03-23T11:22:38;8.48;;;6.93;;
17606;SDS011;69222;52.242;20.980;2024-03-23T11:25:13;9.52;;;7.47;;
17606;SDS011;69222;52.242;20.980;2024-03-23T11:27:42;9.80;;;7.25;;
17606;SDS011;69222;52.242;20.980;2024-03-23T11:30:14;9.93;;;6.40;;
17606;SDS011;69222;52.242;20.980;2024-03-23T11:32:42;8.43;;;6.20;;
17606;SDS011;69222;52.242;20.980;2024-03-23T11:35:10;7.40;;;5.90;;
17606;SDS011;69222;52.242;20.980;2024-03-23T11:38:00;8.13;;;6.47;;
17606;SDS011;69222;52.242;20.980;2024-03-23T11:40:31;7.20;;;6.03;;
17606;SDS011;69222;52.242;20.980;2024-03-23T11:42:59;8.10;;;6.55;;
17606;SDS011;69222;52.242;20.980;2024-03-23T11:45:27;8.23;;;6.22;;
17606;SDS011;69222;52.242;20.980;2024-03-23T11:48:07;7.88;;;5.85;;
17606;SDS011;69222;52.242;20.980;2024-03-23T11:50:36;10.88;;;5.78;;
17606;SDS011;69222;52.242;20.980;2024-03-23T11:53:12;8.38;;;6.70;;
17606;SDS011;69222;52.242;20.980;2024-03-23T11:55:41;8.45;;;6.03;;
17606;SDS011;69222;52.242;20.980;2024-03-23T11:58:09;8.65;;;5.93;;
17606;SDS011;69222;52.242;20.980;2024-03-23T12:00:37;9.50;;;6.10;;
17606;SDS011;69222;52.242;20.980;2024-03-23T12:03:03;8.93;;;4.53;;
17606;SDS011;69222;52.242;20.980;2024-03-23T12:05:31;5.85;;;5.13;;
17606;SDS011;69222;52.242;20.980;2024-03-23T12:10:44;6.35;;;4.75;;
17606;SDS011;69222;52.242;20.980;2024-03-23T12:13:12;7.40;;;5.45;;
17606;SDS011;69222;52.242;20.980;2024-03-23T12:15:42;6.32;;;5.10;;
17606;SDS011;69222;52.242;20.980;2024-03-23T12:18:09;9.73;;;5.03;;
17606;SDS011;69222;52.242;20.980;2024-03-23T12:20:37;7.57;;;5.03;;
17606;SDS011;69222;52.242;20.980;2024-03-23T12:23:07;8.13;;;5.70;;
17606;SDS011;69222;52.242;20.980;2024-03-23T12:25:35;8.77;;;6.18;;
17606;SDS011;69222;52.242;20.980;2024-03-23T12:28:01;6.90;;;5.53;;
17606;SDS011;69222;52.242;20.980;2024-03-23T12:30:33;7.75;;;4.90;;
17606;SDS011;69222;52.242;20.980;2024-03-23T12:32:59;11.43;;;6.45;;
17606;SDS011;69222;52.242;20.980;2024-03-23T12:35:29;8.02;;;5.68;;
17606;SDS011;69222;52.242;20.980;2024-03-23T12:37:55;6.38;;;5.45;;
17606;SDS011;69222;52.242;20.980;2024-03-23T12:40:22;7.45;;;5.82;;
17606;SDS011;69222;52.242;20.980;2024-03-23T12:42:48;8.23;;;5.38;;
17606;SDS011;69222;52.242;20.980;2024-03-23T12:45:15;6.93;;;5.50;;
17606;SDS011;69222;52.242;20.980;2024-03-23T12:47:43;10.85;;;5.60;;
17606;SDS011;69222;52.242;20.980;2024-03-23T12:50:10;7.22;;;5.72;;
17606;SDS011;69222;52.242;20.980;2024-03-23T12:52:36;11.40;;;5.40;;
17606;SDS011;69222;52.242;20.980;2024-03-23T12:55:04;8.63;;;5.80;;
17606;SDS011;69222;52.242;20.980;2024-03-23T12:57:31;8.13;;;6.22;;
17606;SDS011;69222;52.242;20.980;2024-03-23T12:59:58;7.47;;;5.82;;
17606;SDS011;69222;52.242;20.980;2024-03-23T13:02:24;9.65;;;5.78;;
17606;SDS011;69222;52.242;20.980;2024-03-23T13:04:53;10.20;;;6.43;;
17606;SDS011;69222;52.242;20.980;2024-03-23T13:07:19;6.95;;;6.10;;
17606;SDS011;69222;52.242;20.980;2024-03-23T13:09:49;10.32;;;6.35;;
17606;SDS011;69222;52.242;20.980;2024-03-23T13:12:16;11.85;;;6.28;;
17606;SDS011;69222;52.242;20.980;2024-03-23T13:14:44;8.13;;;6.20;;
17606;SDS011;69222;52.242;20.980;2024-03-23T13:17:10;7.18;;;5.88;;
17606;SDS011;69222;52.242;20.980;2024-03-23T13:19:37;6.70;;;5.20;;
17606;SDS011;69222;52.242;20.980;2024-03-23T13:22:04;8.82;;;6.40;;
17606;SDS011;69222;52.242;20.980;2024-03-23T13:24:31;9.13;;;6.45;;
17606;SDS011;69222;52.242;20.980;2024-03-23T13:26:58;6.65;;;5.88;;
17606;SDS011;69222;52.242;20.980;2024-03-23T13:29:25;7.85;;;5.88;;
17606;SDS011;69222;52.242;20.980;2024-03-23T13:31:51;11.93;;;5.93;;
17606;SDS011;69222;52.242;20.980;2024-03-23T13:34:18;10.87;;;6.33;;
17606;SDS011;69222;52.242;20.980;2024-03-23T13:36:46;8.88;;;5.85;;
17606;SDS011;69222;52.242;20.980;2024-03-23T13:39:15;7.35;;;5.68;;
17606;SDS011;69222;52.242;20.980;2024-03-23T13:41:41;13.57;;;6.03;;
17606;SDS011;69222;52.242;20.980;2024-03-23T13:44:09;7.20;;;5.63;;
17606;SDS011;69222;52.242;20.980;2024-03-23T13:46:36;7.32;;;5.40;;
17606;SDS011;69222;52.242;20.980;2024-03-23T13:49:03;8.98;;;6.25;;
17606;SDS011;69222;52.242;20.980;2024-03-23T13:51:29;6.82;;;5.75;;
17606;SDS011;69222;52.242;20.980;2024-03-23T13:53:56;9.30;;;5.85;;
17606;SDS011;69222;52.242;20.980;2024-03-23T13:56:24;9.18;;;6.30;;
17606;SDS011;69222;52.242;20.980;2024-03-23T13:58:51;8.32;;;5.97;;
17606;SDS011;69222;52.242;20.980;2024-03-23T14:01:17;7.70;;;5.97;;
17606;SDS011;69222;52.242;20.980;2024-03-23T14:03:44;7.35;;;6.13;;
17606;SDS011;69222;52.242;20.980;2024-03-23T14:06:10;7.78;;;6.20;;
17606;SDS011;69222;52.242;20.980;2024-03-23T14:08:37;8.75;;;6.43;;
17606;SDS011;69222;52.242;20.980;2024-03-23T14:11:04;9.80;;;5.95;;
17606;SDS011;69222;52.242;20.980;2024-03-23T14:13:33;9.10;;;5.72;;
17606;SDS011;69222;52.242;20.980;2024-03-23T14:15:59;7.70;;;6.18;;
17606;SDS011;69222;52.242;20.980;2024-03-23T14:18:26;9.95;;;5.70;;
17606;SDS011;69222;52.242;20.980;2024-03-23T14:20:52;8.30;;;5.95;;
17606;SDS011;69222;52.242;20.980;2024-03-23T14:23:24;6.88;;;5.32;;
17606;SDS011;69222;52.242;20.980;2024-03-23T14:25:52;6.63;;;5.03;;
17606;SDS011;69222;52.242;20.980;2024-03-23T14:28:19;8.30;;;5.95;;
17606;SDS011;69222;52.242;20.980;2024-03-23T14:30:46;6.97;;;5.22;;
17606;SDS011;69222;52.242;20.980;2024-03-23T14:33:13;9.75;;;5.57;;
17606;SDS011;69222;52.242;20.980;2024-03-23T14:35:39;8.00;;;5.57;;
17606;SDS011;69222;52.242;20.980;2024-03-23T14:38:06;8.10;;;5.72;;
17606;SDS011;69222;52.242;20.980;2024-03-23T14:40:33;9.23;;;5.70;;
17606;SDS011;69222;52.242;20.980;2024-03-23T14:42:59;8.30;;;5.82;;
17606;SDS011;69222;52.242;20.980;2024-03-23T14:45:25;7.93;;;5.20;;
17606;SDS011;69222;52.242;20.980;2024-03-23T14:47:54;6.90;;;5.15;;
17606;SDS011;69222;52.242;20.980;2024-03-23T14:50:20;8.10;;;4.75;;
17606;SDS011;69222;52.242;20.980;2024-03-23T14:52:47;8.65;;;5.90;;
17606;SDS011;69222;52.242;20.980;2024-03-23T14:55:13;7.18;;;5.35;;
17606;SDS011;69222;52.242;20.980;2024-03-23T14:57:40;8.32;;;5.70;;
17606;SDS011;69222;52.242;20.980;2024-03-23T15:00:07;10.55;;;6.07;;
17606;SDS011;69222;52.242;20.980;2024-03-23T15:02:36;8.77;;;5.47;;
17606;SDS011;69222;52.242;20.980;2024-03-23T15:05:03;8.68;;;6.38;;
17606;SDS011;69222;52.242;20.980;2024-03-23T15:07:30;8.52;;;6.07;;
17606;SDS011;69222;52.242;20.980;2024-03-23T15:09:56;11.40;;;6.90;;
17606;SDS011;69222;52.242;20.980;2024-03-23T15:12:24;10.85;;;8.00;;
17606;SDS011;69222;52.242;20.980;2024-03-23T15:14:51;14.13;;;8.50;;